Arlington, Kansas
Current Conditions -  °F | °C
As of 1:52 AM on Friday 19 Dec 2014 (Local Time) from KHUT Reporting Station
Haze Haze  
Wind Chill: 31°   Ceiling: 400
Heat Index: 31°   Visibility: 5mi
Dew Point: 28°   Wind: 3mph
Humidity: 89%   Direction: 160°SSE
Pressure: 30.23"   Gusts: NA
Location:  37.9°N, 98.18°W
Report Text: KHUT 190752Z AUTO 16003KT 5SM BR OVC004 M01/M02 A3023 RMK AO2 SLP243 T10061022
Loading
Personal Weather Stations






























Interactive Weather Map New forecast layout! Learn more

10-Day Weather Forecast

Advertisements
Track Severe Weather on mobile